sensor_id;sensor_type;location;lat;lon;timestamp;temperature;humidity
4406;DHT22;2216;53.806;11.598;2022-07-18T00:02:23;15.10;51.80
4406;DHT22;2216;53.806;11.598;2022-07-18T00:04:48;15.00;51.80
4406;DHT22;2216;53.806;11.598;2022-07-18T00:07:15;15.00;51.80
4406;DHT22;2216;53.806;11.598;2022-07-18T00:09:41;15.00;51.90
4406;DHT22;2216;53.806;11.598;2022-07-18T00:12:08;14.90;51.90
4406;DHT22;2216;53.806;11.598;2022-07-18T00:14:36;14.90;51.90
4406;DHT22;2216;53.806;11.598;2022-07-18T00:17:03;14.90;52.00
4406;DHT22;2216;53.806;11.598;2022-07-18T00:19:30;14.80;51.90
4406;DHT22;2216;53.806;11.598;2022-07-18T00:21:56;14.80;51.90
4406;DHT22;2216;53.806;11.598;2022-07-18T00:24:22;14.80;52.00
4406;DHT22;2216;53.806;11.598;2022-07-18T00:26:47;14.80;52.00
4406;DHT22;2216;53.806;11.598;2022-07-18T00:29:13;14.70;52.00
4406;DHT22;2216;53.806;11.598;2022-07-18T00:31:39;14.70;52.00
4406;DHT22;2216;53.806;11.598;2022-07-18T00:34:04;14.60;52.00
4406;DHT22;2216;53.806;11.598;2022-07-18T00:36:30;14.60;52.10
4406;DHT22;2216;53.806;11.598;2022-07-18T00:38:57;14.60;52.10
4406;DHT22;2216;53.806;11.598;2022-07-18T00:41:24;14.50;52.00
4406;DHT22;2216;53.806;11.598;2022-07-18T00:43:50;14.50;52.10
4406;DHT22;2216;53.806;11.598;2022-07-18T00:46:21;14.50;52.20
4406;DHT22;2216;53.806;11.598;2022-07-18T00:48:48;14.50;52.20
4406;DHT22;2216;53.806;11.598;2022-07-18T00:51:14;14.50;52.80
4406;DHT22;2216;53.806;11.598;2022-07-18T00:53:39;14.40;52.10
4406;DHT22;2216;53.806;11.598;2022-07-18T00:56:06;14.40;52.20
4406;DHT22;2216;53.806;11.598;2022-07-18T00:58:32;14.40;52.20
4406;DHT22;2216;53.806;11.598;2022-07-18T01:00:58;14.40;52.20
4406;DHT22;2216;53.806;11.598;2022-07-18T01:03:43;14.30;52.10
4406;DHT22;2216;53.806;11.598;2022-07-18T01:06:10;14.30;52.20
4406;DHT22;2216;53.806;11.598;2022-07-18T01:08:35;14.20;52.10
4406;DHT22;2216;53.806;11.598;2022-07-18T01:11:03;14.20;52.80
4406;DHT22;2216;53.806;11.598;2022-07-18T01:13:29;14.20;52.30
4406;DHT22;2216;53.806;11.598;2022-07-18T01:15:55;14.20;52.30
4406;DHT22;2216;53.806;11.598;2022-07-18T01:18:20;14.10;52.40
4406;DHT22;2216;53.806;11.598;2022-07-18T01:20:46;14.10;52.40
4406;DHT22;2216;53.806;11.598;2022-07-18T01:23:12;14.10;52.40
4406;DHT22;2216;53.806;11.598;2022-07-18T01:25:37;14.10;52.40
4406;DHT22;2216;53.806;11.598;2022-07-18T01:28:03;14.00;52.40
4406;DHT22;2216;53.806;11.598;2022-07-18T01:30:29;14.00;52.50
4406;DHT22;2216;53.806;11.598;2022-07-18T01:32:57;14.00;52.50
4406;DHT22;2216;53.806;11.598;2022-07-18T01:35:25;14.00;52.50
4406;DHT22;2216;53.806;11.598;2022-07-18T01:37:53;14.00;53.20
4406;DHT22;2216;53.806;11.598;2022-07-18T01:40:21;14.00;52.50
4406;DHT22;2216;53.806;11.598;2022-07-18T01:42:47;14.00;52.50
4406;DHT22;2216;53.806;11.598;2022-07-18T01:45:13;13.90;52.50
4406;DHT22;2216;53.806;11.598;2022-07-18T01:47:41;13.90;52.60
4406;DHT22;2216;53.806;11.598;2022-07-18T01:50:08;13.90;52.70
4406;DHT22;2216;53.806;11.598;2022-07-18T01:52:35;13.90;52.70
4406;DHT22;2216;53.806;11.598;2022-07-18T01:55:01;13.90;52.70
4406;DHT22;2216;53.806;11.598;2022-07-18T01:57:27;13.80;52.70
4406;DHT22;2216;53.806;11.598;2022-07-18T01:59:53;13.80;52.70
4406;DHT22;2216;53.806;11.598;2022-07-18T02:02:19;13.80;52.70
4406;DHT22;2216;53.806;11.598;2022-07-18T02:04:44;13.80;52.70
4406;DHT22;2216;53.806;11.598;2022-07-18T02:07:27;13.80;52.70
4406;DHT22;2216;53.806;11.598;2022-07-18T02:09:54;13.70;52.70
4406;DHT22;2216;53.806;11.598;2022-07-18T02:12:20;13.70;52.70
4406;DHT22;2216;53.806;11.598;2022-07-18T02:14:46;13.70;52.70
4406;DHT22;2216;53.806;11.598;2022-07-18T02:17:12;13.70;52.70
4406;DHT22;2216;53.806;11.598;2022-07-18T02:19:38;13.70;52.70
4406;DHT22;2216;53.806;11.598;2022-07-18T02:22:03;13.60;52.70
4406;DHT22;2216;53.806;11.598;2022-07-18T02:24:29;13.60;52.70
4406;DHT22;2216;53.806;11.598;2022-07-18T02:26:56;13.60;52.80
4406;DHT22;2216;53.806;11.598;2022-07-18T02:29:21;13.70;53.00
4406;DHT22;2216;53.806;11.598;2022-07-18T02:31:47;13.60;52.90
4406;DHT22;2216;53.806;11.598;2022-07-18T02:34:13;13.60;52.90
4406;DHT22;2216;53.806;11.598;2022-07-18T02:36:40;13.60;52.90
4406;DHT22;2216;53.806;11.598;2022-07-18T02:39:07;13.50;52.90
4406;DHT22;2216;53.806;11.598;2022-07-18T02:41:34;13.50;53.00
4406;DHT22;2216;53.806;11.598;2022-07-18T02:44:00;13.50;52.90
4406;DHT22;2216;53.806;11.598;2022-07-18T02:46:26;13.50;52.90
4406;DHT22;2216;53.806;11.598;2022-07-18T02:48:51;13.50;52.90
4406;DHT22;2216;53.806;11.598;2022-07-18T02:51:17;13.50;52.90
4406;DHT22;2216;53.806;11.598;2022-07-18T02:53:43;13.50;53.00
4406;DHT22;2216;53.806;11.598;2022-07-18T02:56:09;13.50;53.00
4406;DHT22;2216;53.806;11.598;2022-07-18T02:58:35;13.50;53.00
4406;DHT22;2216;53.806;11.598;2022-07-18T03:01:01;13.50;53.00
4406;DHT22;2216;53.806;11.598;2022-07-18T03:03:27;13.40;53.10
4406;DHT22;2216;53.806;11.598;2022-07-18T03:05:52;13.40;53.10
4406;DHT22;2216;53.806;11.598;2022-07-18T03:08:18;13.50;53.10
4406;DHT22;2216;53.806;11.598;2022-07-18T03:10:44;13.40;53.00
4406;DHT22;2216;53.806;11.598;2022-07-18T03:13:09;13.40;53.20
4406;DHT22;2216;53.806;11.598;2022-07-18T03:15:39;13.40;53.10
4406;DHT22;2216;53.806;11.598;2022-07-18T03:18:05;13.40;53.20
4406;DHT22;2216;53.806;11.598;2022-07-18T03:20:31;13.40;53.20
4406;DHT22;2216;53.806;11.598;2022-07-18T03:22:57;13.50;53.30
4406;DHT22;2216;53.806;11.598;2022-07-18T03:25:23;13.50;53.40
4406;DHT22;2216;53.806;11.598;2022-07-18T03:27:48;13.50;53.40
4406;DHT22;2216;53.806;11.598;2022-07-18T03:30:14;13.50;53.40
4406;DHT22;2216;53.806;11.598;2022-07-18T03:32:40;13.50;53.50
4406;DHT22;2216;53.806;11.598;2022-07-18T03:35:06;13.50;53.50
4406;DHT22;2216;53.806;11.598;2022-07-18T03:37:32;13.60;53.50
4406;DHT22;2216;53.806;11.598;2022-07-18T03:39:58;13.60;53.60
4406;DHT22;2216;53.806;11.598;2022-07-18T03:42:24;13.60;53.50
4406;DHT22;2216;53.806;11.598;2022-07-18T03:44:49;13.70;53.60
4406;DHT22;2216;53.806;11.598;2022-07-18T03:47:15;13.70;53.60
4406;DHT22;2216;53.806;11.598;2022-07-18T03:49:41;13.80;53.70
4406;DHT22;2216;53.806;11.598;2022-07-18T03:52:06;13.80;53.80
4406;DHT22;2216;53.806;11.598;2022-07-18T03:54:32;13.90;53.80
4406;DHT22;2216;53.806;11.598;2022-07-18T03:56:58;14.00;53.80
4406;DHT22;2216;53.806;11.598;2022-07-18T03:59:23;14.00;54.00
4406;DHT22;2216;53.806;11.598;2022-07-18T04:01:49;14.10;54.10
4406;DHT22;2216;53.806;11.598;2022-07-18T04:04:15;14.20;54.40
4406;DHT22;2216;53.806;11.598;2022-07-18T04:06:40;14.30;54.40
4406;DHT22;2216;53.806;11.598;2022-07-18T04:09:06;14.50;54.60
4406;DHT22;2216;53.806;11.598;2022-07-18T04:11:32;14.60;54.60
4406;DHT22;2216;53.806;11.598;2022-07-18T04:13:57;14.70;54.80
4406;DHT22;2216;53.806;11.598;2022-07-18T04:16:24;14.90;54.80
4406;DHT22;2216;53.806;11.598;2022-07-18T04:18:50;15.00;54.70
4406;DHT22;2216;53.806;11.598;2022-07-18T04:21:16;15.10;54.80
4406;DHT22;2216;53.806;11.598;2022-07-18T04:23:42;15.30;54.80
4406;DHT22;2216;53.806;11.598;2022-07-18T04:26:08;15.40;54.90
4406;DHT22;2216;53.806;11.598;2022-07-18T04:28:34;15.60;55.10
4406;DHT22;2216;53.806;11.598;2022-07-18T04:31:00;15.70;55.10
4406;DHT22;2216;53.806;11.598;2022-07-18T04:33:26;15.90;55.00
4406;DHT22;2216;53.806;11.598;2022-07-18T04:35:52;16.00;55.20
4406;DHT22;2216;53.806;11.598;2022-07-18T04:38:17;16.20;55.20
4406;DHT22;2216;53.806;11.598;2022-07-18T04:40:43;16.40;55.10
4406;DHT22;2216;53.806;11.598;2022-07-18T04:43:09;16.60;55.30
4406;DHT22;2216;53.806;11.598;2022-07-18T04:45:35;16.80;55.20
4406;DHT22;2216;53.806;11.598;2022-07-18T04:48:03;17.00;55.30
4406;DHT22;2216;53.806;11.598;2022-07-18T04:50:30;17.20;55.30
4406;DHT22;2216;53.806;11.598;2022-07-18T04:52:56;17.40;55.30
4406;DHT22;2216;53.806;11.598;2022-07-18T04:55:24;17.60;55.50
4406;DHT22;2216;53.806;11.598;2022-07-18T04:57:51;17.80;55.20
4406;DHT22;2216;53.806;11.598;2022-07-18T05:00:19;18.00;55.20
4406;DHT22;2216;53.806;11.598;2022-07-18T05:02:49;18.20;55.00
4406;DHT22;2216;53.806;11.598;2022-07-18T05:05:17;18.30;54.90
4406;DHT22;2216;53.806;11.598;2022-07-18T05:07:44;18.50;54.80
4406;DHT22;2216;53.806;11.598;2022-07-18T05:10:12;18.70;54.70
4406;DHT22;2216;53.806;11.598;2022-07-18T05:12:40;18.80;54.60
4406;DHT22;2216;53.806;11.598;2022-07-18T05:15:09;18.90;54.50
4406;DHT22;2216;53.806;11.598;2022-07-18T05:17:37;19.00;54.40
4406;DHT22;2216;53.806;11.598;2022-07-18T05:20:04;19.10;54.30
4406;DHT22;2216;53.806;11.598;2022-07-18T05:22:33;19.10;54.20
4406;DHT22;2216;53.806;11.598;2022-07-18T05:24:59;19.30;54.20
4406;DHT22;2216;53.806;11.598;2022-07-18T05:27:25;19.30;54.10
4406;DHT22;2216;53.806;11.598;2022-07-18T05:29:51;19.40;54.10
4406;DHT22;2216;53.806;11.598;2022-07-18T05:32:17;19.50;54.10
4406;DHT22;2216;53.806;11.598;2022-07-18T05:34:42;19.60;54.20
4406;DHT22;2216;53.806;11.598;2022-07-18T05:37:08;19.70;54.20
4406;DHT22;2216;53.806;11.598;2022-07-18T05:39:34;19.70;54.10
4406;DHT22;2216;53.806;11.598;2022-07-18T05:42:01;19.80;54.00
4406;DHT22;2216;53.806;11.598;2022-07-18T05:44:27;19.90;54.60
4406;DHT22;2216;53.806;11.598;2022-07-18T05:46:53;20.00;54.20
4406;DHT22;2216;53.806;11.598;2022-07-18T05:49:19;20.10;54.20
4406;DHT22;2216;53.806;11.598;2022-07-18T05:51:45;20.30;54.30
4406;DHT22;2216;53.806;11.598;2022-07-18T05:54:10;20.40;54.30
4406;DHT22;2216;53.806;11.598;2022-07-18T05:56:36;20.60;54.30
4406;DHT22;2216;53.806;11.598;2022-07-18T05:59:02;20.70;54.20
4406;DHT22;2216;53.806;11.598;2022-07-18T06:01:27;20.80;54.00
4406;DHT22;2216;53.806;11.598;2022-07-18T06:03:53;20.90;53.90
4406;DHT22;2216;53.806;11.598;2022-07-18T06:06:19;20.90;53.70
4406;DHT22;2216;53.806;11.598;2022-07-18T06:08:45;21.00;53.70
4406;DHT22;2216;53.806;11.598;2022-07-18T06:11:11;21.00;53.60
4406;DHT22;2216;53.806;11.598;2022-07-18T06:13:38;21.10;53.60
4406;DHT22;2216;53.806;11.598;2022-07-18T06:16:06;21.10;53.50
4406;DHT22;2216;53.806;11.598;2022-07-18T06:18:32;21.20;53.60
4406;DHT22;2216;53.806;11.598;2022-07-18T06:21:01;21.10;53.40
4406;DHT22;2216;53.806;11.598;2022-07-18T06:23:28;21.20;53.50
4406;DHT22;2216;53.806;11.598;2022-07-18T06:25:54;21.20;53.50
4406;DHT22;2216;53.806;11.598;2022-07-18T06:28:20;21.30;53.50
4406;DHT22;2216;53.806;11.598;2022-07-18T06:30:46;21.30;53.50
4406;DHT22;2216;53.806;11.598;2022-07-18T06:33:12;21.30;53.50
4406;DHT22;2216;53.806;11.598;2022-07-18T06:35:39;21.30;53.50
4406;DHT22;2216;53.806;11.598;2022-07-18T06:38:05;21.40;53.60
4406;DHT22;2216;53.806;11.598;2022-07-18T06:40:31;21.50;53.70
4406;DHT22;2216;53.806;11.598;2022-07-18T06:42:57;21.60;53.80
4406;DHT22;2216;53.806;11.598;2022-07-18T06:45:23;21.70;54.10
4406;DHT22;2216;53.806;11.598;2022-07-18T06:47:48;21.90;54.20
4406;DHT22;2216;53.806;11.598;2022-07-18T06:50:15;22.20;54.30
4406;DHT22;2216;53.806;11.598;2022-07-18T06:52:42;22.40;54.20
4406;DHT22;2216;53.806;11.598;2022-07-18T06:55:09;22.60;54.00
4406;DHT22;2216;53.806;11.598;2022-07-18T06:57:36;22.70;53.80
4406;DHT22;2216;53.806;11.598;2022-07-18T07:00:03;22.90;53.70
4406;DHT22;2216;53.806;11.598;2022-07-18T07:02:30;23.00;53.70
4406;DHT22;2216;53.806;11.598;2022-07-18T07:04:56;23.10;53.60
4406;DHT22;2216;53.806;11.598;2022-07-18T07:07:21;23.30;53.50
4406;DHT22;2216;53.806;11.598;2022-07-18T07:09:47;23.40;53.50
4406;DHT22;2216;53.806;11.598;2022-07-18T07:12:13;23.40;53.30
4406;DHT22;2216;53.806;11.598;2022-07-18T07:14:38;23.50;53.30
4406;DHT22;2216;53.806;11.598;2022-07-18T07:17:04;23.60;53.10
4406;DHT22;2216;53.806;11.598;2022-07-18T07:19:30;23.70;53.10
4406;DHT22;2216;53.806;11.598;2022-07-18T07:21:56;23.70;53.00
4406;DHT22;2216;53.806;11.598;2022-07-18T07:24:22;23.70;53.00
4406;DHT22;2216;53.806;11.598;2022-07-18T07:26:48;23.80;53.00
4406;DHT22;2216;53.806;11.598;2022-07-18T07:29:14;23.80;53.00
4406;DHT22;2216;53.806;11.598;2022-07-18T07:31:40;23.90;53.10
4406;DHT22;2216;53.806;11.598;2022-07-18T07:34:06;23.90;52.90
4406;DHT22;2216;53.806;11.598;2022-07-18T07:36:32;24.00;52.90
4406;DHT22;2216;53.806;11.598;2022-07-18T07:38:58;24.10;52.90
4406;DHT22;2216;53.806;11.598;2022-07-18T07:41:24;24.10;52.70
4406;DHT22;2216;53.806;11.598;2022-07-18T07:43:49;24.10;52.60
4406;DHT22;2216;53.806;11.598;2022-07-18T07:46:15;24.10;52.50
4406;DHT22;2216;53.806;11.598;2022-07-18T07:48:41;24.00;52.40
4406;DHT22;2216;53.806;11.598;2022-07-18T07:51:08;23.90;52.40
4406;DHT22;2216;53.806;11.598;2022-07-18T07:53:34;23.90;52.40
4406;DHT22;2216;53.806;11.598;2022-07-18T07:56:00;23.80;52.40
4406;DHT22;2216;53.806;11.598;2022-07-18T07:58:25;23.80;52.40
4406;DHT22;2216;53.806;11.598;2022-07-18T08:00:51;23.70;52.40
4406;DHT22;2216;53.806;11.598;2022-07-18T08:03:17;23.70;52.40
4406;DHT22;2216;53.806;11.598;2022-07-18T08:05:48;23.70;52.50
4406;DHT22;2216;53.806;11.598;2022-07-18T08:08:15;23.60;52.50
4406;DHT22;2216;53.806;11.598;2022-07-18T08:10:41;23.60;52.60
4406;DHT22;2216;53.806;11.598;2022-07-18T08:13:08;23.60;52.70
4406;DHT22;2216;53.806;11.598;2022-07-18T08:15:34;23.60;52.80
4406;DHT22;2216;53.806;11.598;2022-07-18T08:18:01;23.60;52.90
4406;DHT22;2216;53.806;11.598;2022-07-18T08:20:26;23.70;52.90
4406;DHT22;2216;53.806;11.598;2022-07-18T08:22:59;23.70;52.90
4406;DHT22;2216;53.806;11.598;2022-07-18T08:25:26;23.80;52.90
4406;DHT22;2216;53.806;11.598;2022-07-18T08:27:52;23.90;52.90
4406;DHT22;2216;53.806;11.598;2022-07-18T08:30:19;23.90;52.90
4406;DHT22;2216;53.806;11.598;2022-07-18T08:32:45;24.00;52.90
4406;DHT22;2216;53.806;11.598;2022-07-18T08:35:11;23.90;52.70
4406;DHT22;2216;53.806;11.598;2022-07-18T08:37:36;24.00;52.70
4406;DHT22;2216;53.806;11.598;2022-07-18T08:40:02;24.10;52.70
4406;DHT22;2216;53.806;11.598;2022-07-18T08:42:29;24.10;52.70
4406;DHT22;2216;53.806;11.598;2022-07-18T08:44:57;24.10;52.70
4406;DHT22;2216;53.806;11.598;2022-07-18T08:47:23;24.20;52.70
4406;DHT22;2216;53.806;11.598;2022-07-18T08:49:50;24.30;52.70
4406;DHT22;2216;53.806;11.598;2022-07-18T08:52:16;24.30;53.30
4406;DHT22;2216;53.806;11.598;2022-07-18T08:54:42;24.40;52.70
4406;DHT22;2216;53.806;11.598;2022-07-18T08:57:08;24.60;52.80
4406;DHT22;2216;53.806;11.598;2022-07-18T08:59:34;24.60;52.90
4406;DHT22;2216;53.806;11.598;2022-07-18T09:02:00;24.60;52.90
4406;DHT22;2216;53.806;11.598;2022-07-18T09:04:36;24.80;53.00
4406;DHT22;2216;53.806;11.598;2022-07-18T09:07:04;24.90;52.90
4406;DHT22;2216;53.806;11.598;2022-07-18T09:09:30;25.00;52.80
4406;DHT22;2216;53.806;11.598;2022-07-18T09:12:02;25.20;52.90
4406;DHT22;2216;53.806;11.598;2022-07-18T09:14:43;25.30;52.80
4406;DHT22;2216;53.806;11.598;2022-07-18T09:17:18;25.50;52.80
4406;DHT22;2216;53.806;11.598;2022-07-18T09:20:13;25.60;52.70
4406;DHT22;2216;53.806;11.598;2022-07-18T09:22:44;25.70;52.60
4406;DHT22;2216;53.806;11.598;2022-07-18T09:25:15;25.80;52.50
4406;DHT22;2216;53.806;11.598;2022-07-18T09:27:51;25.90;52.50
4406;DHT22;2216;53.806;11.598;2022-07-18T09:30:31;26.00;52.50
4406;DHT22;2216;53.806;11.598;2022-07-18T09:35:32;26.10;52.30
4406;DHT22;2216;53.806;11.598;2022-07-18T09:38:09;26.40;52.50
4406;DHT22;2216;53.806;11.598;2022-07-18T09:40:41;26.20;52.30
4406;DHT22;2216;53.806;11.598;2022-07-18T09:43:12;26.20;52.10
4406;DHT22;2216;53.806;11.598;2022-07-18T09:45:45;26.20;52.00
4406;DHT22;2216;53.806;11.598;2022-07-18T09:50:57;26.20;52.00
4406;DHT22;2216;53.806;11.598;2022-07-18T09:53:32;26.20;51.90
4406;DHT22;2216;53.806;11.598;2022-07-18T09:56:01;26.20;52.00
4406;DHT22;2216;53.806;11.598;2022-07-18T09:58:29;26.20;52.00
4406;DHT22;2216;53.806;11.598;2022-07-18T10:00:58;26.20;51.90
4406;DHT22;2216;53.806;11.598;2022-07-18T10:03:25;26.10;51.90
4406;DHT22;2216;53.806;11.598;2022-07-18T10:05:54;26.10;52.00
4406;DHT22;2216;53.806;11.598;2022-07-18T10:08:24;26.10;52.00
4406;DHT22;2216;53.806;11.598;2022-07-18T10:10:55;26.20;52.10
4406;DHT22;2216;53.806;11.598;2022-07-18T10:13:25;26.20;52.20
4406;DHT22;2216;53.806;11.598;2022-07-18T10:15:52;26.30;52.20
4406;DHT22;2216;53.806;11.598;2022-07-18T10:18:27;26.30;52.20
4406;DHT22;2216;53.806;11.598;2022-07-18T10:21:08;26.40;52.60
4406;DHT22;2216;53.806;11.598;2022-07-18T10:23:39;26.40;52.00
4406;DHT22;2216;53.806;11.598;2022-07-18T10:26:18;26.50;52.00
4406;DHT22;2216;53.806;11.598;2022-07-18T10:31:32;26.50;51.90
4406;DHT22;2216;53.806;11.598;2022-07-18T10:39:41;26.60;52.10
4406;DHT22;2216;53.806;11.598;2022-07-18T10:44:36;26.80;52.10
4406;DHT22;2216;53.806;11.598;2022-07-18T10:47:10;26.80;52.10
4406;DHT22;2216;53.806;11.598;2022-07-18T10:58:15;27.20;52.20
4406;DHT22;2216;53.806;11.598;2022-07-18T11:00:37;27.20;52.10
4406;DHT22;2216;53.806;11.598;2022-07-18T11:05:36;27.40;52.10
4406;DHT22;2216;53.806;11.598;2022-07-18T11:16:19;27.80;51.70
4406;DHT22;2216;53.806;11.598;2022-07-18T11:24:05;28.10;51.60
4406;DHT22;2216;53.806;11.598;2022-07-18T11:26:35;28.10;51.60
4406;DHT22;2216;53.806;11.598;2022-07-18T11:29:08;28.20;51.70
4406;DHT22;2216;53.806;11.598;2022-07-18T11:31:55;28.30;51.70
4406;DHT22;2216;53.806;11.598;2022-07-18T11:34:23;28.40;51.70
4406;DHT22;2216;53.806;11.598;2022-07-18T11:36:50;28.50;51.80
4406;DHT22;2216;53.806;11.598;2022-07-18T11:39:28;28.60;51.30
4406;DHT22;2216;53.806;11.598;2022-07-18T11:41:55;28.70;51.70
4406;DHT22;2216;53.806;11.598;2022-07-18T11:44:20;28.80;51.60
4406;DHT22;2216;53.806;11.598;2022-07-18T11:47:06;29.00;51.60
4406;DHT22;2216;53.806;11.598;2022-07-18T11:49:34;29.10;51.50
4406;DHT22;2216;53.806;11.598;2022-07-18T11:52:00;29.30;51.30
4406;DHT22;2216;53.806;11.598;2022-07-18T11:54:26;29.40;51.50
4406;DHT22;2216;53.806;11.598;2022-07-18T11:56:54;29.60;51.60
4406;DHT22;2216;53.806;11.598;2022-07-18T11:59:21;29.80;51.70
4406;DHT22;2216;53.806;11.598;2022-07-18T12:01:47;30.00;51.60
4406;DHT22;2216;53.806;11.598;2022-07-18T12:04:23;30.20;51.40
4406;DHT22;2216;53.806;11.598;2022-07-18T12:09:45;30.50;51.20
4406;DHT22;2216;53.806;11.598;2022-07-18T12:12:17;30.60;51.10
4406;DHT22;2216;53.806;11.598;2022-07-18T12:14:59;30.70;51.00
4406;DHT22;2216;53.806;11.598;2022-07-18T12:17:27;30.80;50.80
4406;DHT22;2216;53.806;11.598;2022-07-18T12:20:12;30.90;51.10
4406;DHT22;2216;53.806;11.598;2022-07-18T12:23:03;31.00;51.10
4406;DHT22;2216;53.806;11.598;2022-07-18T12:25:56;31.20;50.90
4406;DHT22;2216;53.806;11.598;2022-07-18T12:28:27;31.20;50.80
4406;DHT22;2216;53.806;11.598;2022-07-18T12:30:54;31.30;50.40
4406;DHT22;2216;53.806;11.598;2022-07-18T12:33:20;31.30;50.50
4406;DHT22;2216;53.806;11.598;2022-07-18T12:35:58;31.20;50.10
4406;DHT22;2216;53.806;11.598;2022-07-18T12:38:25;31.10;49.80
4406;DHT22;2216;53.806;11.598;2022-07-18T12:40:56;31.00;50.00
4406;DHT22;2216;53.806;11.598;2022-07-18T12:43:29;30.70;49.80
4406;DHT22;2216;53.806;11.598;2022-07-18T12:45:56;30.80;49.40
4406;DHT22;2216;53.806;11.598;2022-07-18T12:48:23;30.60;49.80
4406;DHT22;2216;53.806;11.598;2022-07-18T12:50:57;30.50;49.40
4406;DHT22;2216;53.806;11.598;2022-07-18T12:53:25;30.40;49.60
4406;DHT22;2216;53.806;11.598;2022-07-18T12:55:51;30.30;49.50
4406;DHT22;2216;53.806;11.598;2022-07-18T12:58:17;30.20;49.40
4406;DHT22;2216;53.806;11.598;2022-07-18T13:00:42;30.10;49.80
4406;DHT22;2216;53.806;11.598;2022-07-18T13:03:09;30.00;49.90
4406;DHT22;2216;53.806;11.598;2022-07-18T13:05:35;29.90;50.00
4406;DHT22;2216;53.806;11.598;2022-07-18T13:08:01;29.90;50.70
4406;DHT22;2216;53.806;11.598;2022-07-18T13:10:26;29.80;49.90
4406;DHT22;2216;53.806;11.598;2022-07-18T13:12:52;29.80;49.90
4406;DHT22;2216;53.806;11.598;2022-07-18T13:15:18;29.70;50.00
4406;DHT22;2216;53.806;11.598;2022-07-18T13:17:46;29.70;50.00
4406;DHT22;2216;53.806;11.598;2022-07-18T13:20:14;29.60;50.00
4406;DHT22;2216;53.806;11.598;2022-07-18T13:22:41;29.60;50.00
4406;DHT22;2216;53.806;11.598;2022-07-18T13:25:08;29.50;50.00
4406;DHT22;2216;53.806;11.598;2022-07-18T13:27:35;29.40;49.90
4406;DHT22;2216;53.806;11.598;2022-07-18T13:30:03;29.40;49.80
4406;DHT22;2216;53.806;11.598;2022-07-18T13:32:30;29.30;50.00
4406;DHT22;2216;53.806;11.598;2022-07-18T13:34:56;29.30;50.00
4406;DHT22;2216;53.806;11.598;2022-07-18T13:37:22;29.20;49.80
4406;DHT22;2216;53.806;11.598;2022-07-18T13:39:48;29.10;49.90
4406;DHT22;2216;53.806;11.598;2022-07-18T13:42:14;29.10;50.00
4406;DHT22;2216;53.806;11.598;2022-07-18T13:44:40;29.10;50.10
4406;DHT22;2216;53.806;11.598;2022-07-18T13:47:06;29.00;50.00
4406;DHT22;2216;53.806;11.598;2022-07-18T13:49:31;29.00;50.00
4406;DHT22;2216;53.806;11.598;2022-07-18T13:51:57;29.00;50.00
4406;DHT22;2216;53.806;11.598;2022-07-18T13:54:23;29.00;50.00
4406;DHT22;2216;53.806;11.598;2022-07-18T13:56:48;29.00;50.00
4406;DHT22;2216;53.806;11.598;2022-07-18T13:59:14;29.00;49.90
4406;DHT22;2216;53.806;11.598;2022-07-18T14:01:40;28.90;50.00
4406;DHT22;2216;53.806;11.598;2022-07-18T14:04:07;28.90;49.90
4406;DHT22;2216;53.806;11.598;2022-07-18T14:06:33;28.80;49.70
4406;DHT22;2216;53.806;11.598;2022-07-18T14:09:01;28.70;49.70
4406;DHT22;2216;53.806;11.598;2022-07-18T14:11:28;28.70;49.80
4406;DHT22;2216;53.806;11.598;2022-07-18T14:13:54;28.60;49.80
4406;DHT22;2216;53.806;11.598;2022-07-18T14:16:19;28.50;49.60
4406;DHT22;2216;53.806;11.598;2022-07-18T14:18:45;28.50;49.80
4406;DHT22;2216;53.806;11.598;2022-07-18T14:21:11;28.50;49.80
4406;DHT22;2216;53.806;11.598;2022-07-18T14:23:37;28.40;49.80
4406;DHT22;2216;53.806;11.598;2022-07-18T14:26:02;28.30;49.80
4406;DHT22;2216;53.806;11.598;2022-07-18T14:28:28;28.30;49.80
4406;DHT22;2216;53.806;11.598;2022-07-18T14:30:54;28.30;49.80
4406;DHT22;2216;53.806;11.598;2022-07-18T14:33:19;28.20;49.80
4406;DHT22;2216;53.806;11.598;2022-07-18T14:35:45;28.10;49.80
4406;DHT22;2216;53.806;11.598;2022-07-18T14:38:11;28.10;49.90
4406;DHT22;2216;53.806;11.598;2022-07-18T14:40:36;28.10;50.00
4406;DHT22;2216;53.806;11.598;2022-07-18T14:43:02;28.10;50.10
4406;DHT22;2216;53.806;11.598;2022-07-18T14:45:28;28.00;50.10
4406;DHT22;2216;53.806;11.598;2022-07-18T14:47:53;28.10;50.10
4406;DHT22;2216;53.806;11.598;2022-07-18T14:50:19;28.10;50.20
4406;DHT22;2216;53.806;11.598;2022-07-18T14:52:44;28.20;50.80
4406;DHT22;2216;53.806;11.598;2022-07-18T14:55:10;28.20;50.30
4406;DHT22;2216;53.806;11.598;2022-07-18T14:57:37;28.40;50.30
4406;DHT22;2216;53.806;11.598;2022-07-18T15:00:05;28.40;50.30
4406;DHT22;2216;53.806;11.598;2022-07-18T15:02:32;28.50;50.40
4406;DHT22;2216;53.806;11.598;2022-07-18T15:04:57;28.60;50.30
4406;DHT22;2216;53.806;11.598;2022-07-18T15:07:23;28.50;50.70
4406;DHT22;2216;53.806;11.598;2022-07-18T15:09:49;28.80;50.20
4406;DHT22;2216;53.806;11.598;2022-07-18T15:12:14;29.00;50.30
4406;DHT22;2216;53.806;11.598;2022-07-18T15:14:40;29.00;49.40
4406;DHT22;2216;53.806;11.598;2022-07-18T15:17:06;29.10;49.90
4406;DHT22;2216;53.806;11.598;2022-07-18T15:19:32;29.00;49.70
4406;DHT22;2216;53.806;11.598;2022-07-18T15:21:57;29.10;49.60
4406;DHT22;2216;53.806;11.598;2022-07-18T15:24:23;29.20;49.70
4406;DHT22;2216;53.806;11.598;2022-07-18T15:26:49;29.20;50.20
4406;DHT22;2216;53.806;11.598;2022-07-18T15:29:15;29.30;49.50
4406;DHT22;2216;53.806;11.598;2022-07-18T15:31:40;29.30;49.70
4406;DHT22;2216;53.806;11.598;2022-07-18T15:34:06;29.30;49.50
4406;DHT22;2216;53.806;11.598;2022-07-18T15:36:32;29.30;49.70
4406;DHT22;2216;53.806;11.598;2022-07-18T15:38:57;29.40;49.80
4406;DHT22;2216;53.806;11.598;2022-07-18T15:41:23;29.50;49.60
4406;DHT22;2216;53.806;11.598;2022-07-18T15:43:49;29.60;48.90
4406;DHT22;2216;53.806;11.598;2022-07-18T15:46:15;29.60;49.40
4406;DHT22;2216;53.806;11.598;2022-07-18T15:48:43;29.60;49.00
4406;DHT22;2216;53.806;11.598;2022-07-18T15:51:09;29.70;49.00
4406;DHT22;2216;53.806;11.598;2022-07-18T15:53:36;29.60;49.10
4406;DHT22;2216;53.806;11.598;2022-07-18T15:56:02;29.60;49.00
4406;DHT22;2216;53.806;11.598;2022-07-18T15:58:28;29.50;48.80
4406;DHT22;2216;53.806;11.598;2022-07-18T16:00:55;29.50;48.90
4406;DHT22;2216;53.806;11.598;2022-07-18T16:03:22;29.40;49.00
4406;DHT22;2216;53.806;11.598;2022-07-18T16:05:48;29.40;49.10
4406;DHT22;2216;53.806;11.598;2022-07-18T16:08:14;29.30;49.00
4406;DHT22;2216;53.806;11.598;2022-07-18T16:10:40;29.30;49.10
4406;DHT22;2216;53.806;11.598;2022-07-18T16:13:06;29.20;49.10
4406;DHT22;2216;53.806;11.598;2022-07-18T16:15:32;29.20;49.10
4406;DHT22;2216;53.806;11.598;2022-07-18T16:17:57;29.10;49.10
4406;DHT22;2216;53.806;11.598;2022-07-18T16:20:23;29.10;49.10
4406;DHT22;2216;53.806;11.598;2022-07-18T16:22:49;29.10;49.20
4406;DHT22;2216;53.806;11.598;2022-07-18T16:25:15;29.10;49.20
4406;DHT22;2216;53.806;11.598;2022-07-18T16:27:40;29.10;49.30
4406;DHT22;2216;53.806;11.598;2022-07-18T16:30:06;29.10;49.30